Time;durP1;ratioP1;P1;durP2;ratioP2;P2;SDS_P1;SDS_P2;PMS_P1;PMS_P2;Temp;Humidity;BMP_temperature;BMP_pressure;BME280_temperature;BME280_humidity;BME280_pressure;Samples;Min_cycle;Max_cycle;Signal;HPM_P1;HPM_P2
2022/08/23 00:01:42;;;;;;;0.98;0.80;;;;;;;;;;1806447;79;26217;-51
2022/08/23 00:04:11;;;;;;;1.00;0.70;;;;;;;;;;1814841;78;26329;-48
2022/08/23 00:06:39;;;;;;;0.70;0.70;;;;;;;;;;1818941;78;26298;-48
2022/08/23 00:09:06;;;;;;;1.47;0.80;;;;;;;;;;1818436;78;26269;-48
2022/08/23 00:11:35;;;;;;;1.10;0.82;;;;;;;;;;1814465;78;26241;-48
2022/08/23 00:14:04;;;;;;;0.80;0.80;;;;;;;;;;1815861;78;26266;-49
2022/08/23 00:16:31;;;;;;;3.12;0.98;;;;;;;;;;1818471;78;26251;-49
2022/08/23 00:18:59;;;;;;;1.57;0.80;;;;;;;;;;1818015;79;26275;-49
2022/08/23 00:21:28;;;;;;;1.35;0.90;;;;;;;;;;1816996;77;26429;-53
2022/08/23 00:23:55;;;;;;;1.40;0.80;;;;;;;;;;1794246;78;26305;-49
2022/08/23 00:26:23;;;;;;;0.70;0.70;;;;;;;;;;1814878;78;26266;-52
2022/08/23 00:28:51;;;;;;;0.80;0.80;;;;;;;;;;1799837;78;26310;-48
2022/08/23 00:31:18;;;;;;;0.72;0.72;;;;;;;;;;1816557;78;26790;-48
2022/08/23 00:33:46;;;;;;;1.17;0.82;;;;;;;;;;1814996;78;26279;-51
2022/08/23 00:36:13;;;;;;;0.78;0.78;;;;;;;;;;1814792;79;26298;-51
2022/08/23 00:38:40;;;;;;;1.67;0.93;;;;;;;;;;1828602;78;26755;-47
2022/08/23 00:41:08;;;;;;;1.60;1.00;;;;;;;;;;1823048;78;26298;-50
2022/08/23 00:49:12;;;;;;;1.27;0.70;;;;;;;;;;1810327;78;26302;-50
2022/08/23 00:51:41;;;;;;;1.05;0.88;;;;;;;;;;1862933;75;26670;-48
2022/08/23 00:54:09;;;;;;;0.72;0.72;;;;;;;;;;1875876;75;26748;-49
2022/08/23 00:56:38;;;;;;;1.02;0.78;;;;;;;;;;1867504;76;26399;-50
2022/08/23 00:59:06;;;;;;;1.02;0.80;;;;;;;;;;1869239;76;26283;-50
2022/08/23 01:01:34;;;;;;;0.78;0.70;;;;;;;;;;1873311;76;26782;-49
2022/08/23 01:04:01;;;;;;;0.78;0.78;;;;;;;;;;1868216;75;26348;-49
2022/08/23 01:06:30;;;;;;;0.90;0.90;;;;;;;;;;1857957;76;26730;-49
2022/08/23 01:08:59;;;;;;;0.70;0.70;;;;;;;;;;1863853;76;26277;-50
2022/08/23 01:11:30;;;;;;;2.20;0.90;;;;;;;;;;1865312;76;26286;-50
2022/08/23 01:13:59;;;;;;;1.50;0.88;;;;;;;;;;1855306;76;26283;-51
2022/08/23 01:16:34;;;;;;;1.22;0.90;;;;;;;;;;1858533;76;26738;-51
2022/08/23 01:19:02;;;;;;;0.82;0.80;;;;;;;;;;1876353;75;26358;-48
2022/08/23 01:21:34;;;;;;;2.87;0.90;;;;;;;;;;1874874;75;26243;-50
2022/08/23 01:24:03;;;;;;;0.72;0.72;;;;;;;;;;1868143;75;26735;-49
2022/08/23 01:26:35;;;;;;;0.82;0.80;;;;;;;;;;1871241;75;26273;-47
2022/08/23 01:28:59;;;;;;;1.75;0.80;;;;;;;;;;1858469;76;26282;-51
2022/08/23 01:31:27;;;;;;;1.00;0.90;;;;;;;;;;1876557;75;26254;-50
2022/08/23 01:33:56;;;;;;;2.47;1.00;;;;;;;;;;1874778;75;26400;-51
2022/08/23 01:36:23;;;;;;;1.05;0.78;;;;;;;;;;1866228;75;26352;-49
2022/08/23 01:38:50;;;;;;;0.85;0.70;;;;;;;;;;1864945;75;27334;-53
2022/08/23 01:41:18;;;;;;;0.93;0.90;;;;;;;;;;1875227;75;27409;-52
2022/08/23 01:43:45;;;;;;;1.05;0.95;;;;;;;;;;1876492;76;26231;-52
2022/08/23 01:46:15;;;;;;;0.80;0.80;;;;;;;;;;1873602;76;26367;-51
2022/08/23 01:48:44;;;;;;;0.80;0.80;;;;;;;;;;1862110;75;26281;-50
2022/08/23 01:51:12;;;;;;;0.95;0.70;;;;;;;;;;1859762;75;26314;-49
2022/08/23 01:53:40;;;;;;;1.00;0.85;;;;;;;;;;1847779;75;26347;-51
2022/08/23 01:56:07;;;;;;;1.32;0.70;;;;;;;;;;1843865;75;26335;-49
2022/08/23 01:58:36;;;;;;;2.60;0.90;;;;;;;;;;1851086;75;26374;-51
2022/08/23 02:01:04;;;;;;;1.22;1.00;;;;;;;;;;1854192;75;26659;-49
2022/08/23 02:03:31;;;;;;;1.50;0.93;;;;;;;;;;1850801;75;26251;-50
2022/08/23 02:05:59;;;;;;;2.77;0.90;;;;;;;;;;1853946;75;27248;-52
2022/08/23 02:11:14;;;;;;;0.80;0.80;;;;;;;;;;1860817;76;26294;-50
2022/08/23 02:13:41;;;;;;;0.70;0.70;;;;;;;;;;1859808;77;26301;-49
2022/08/23 02:16:09;;;;;;;0.80;0.80;;;;;;;;;;1860582;77;26271;-49
2022/08/23 02:18:36;;;;;;;0.98;0.98;;;;;;;;;;1861035;77;26223;-48
2022/08/23 02:21:04;;;;;;;1.87;1.00;;;;;;;;;;1851415;76;26305;-48
2022/08/23 02:23:31;;;;;;;1.15;0.90;;;;;;;;;;1848682;75;26266;-48
2022/08/23 02:25:58;;;;;;;1.37;0.90;;;;;;;;;;1854148;75;26380;-48
2022/08/23 02:28:26;;;;;;;0.82;0.80;;;;;;;;;;1845282;75;26231;-49
2022/08/23 02:30:53;;;;;;;2.15;0.93;;;;;;;;;;1850365;75;26297;-51
2022/08/23 02:33:20;;;;;;;1.42;0.93;;;;;;;;;;1855178;75;26806;-49
2022/08/23 02:35:48;;;;;;;2.30;1.15;;;;;;;;;;1854347;75;26282;-49
2022/08/23 02:38:17;;;;;;;0.78;0.62;;;;;;;;;;1855453;75;26282;-51
2022/08/23 02:40:44;;;;;;;0.80;0.80;;;;;;;;;;1855730;75;26313;-49
2022/08/23 02:43:11;;;;;;;0.80;0.80;;;;;;;;;;1855533;75;26246;-51
2022/08/23 02:45:39;;;;;;;0.80;0.80;;;;;;;;;;1857252;75;26206;-50
2022/08/23 02:48:07;;;;;;;1.37;0.93;;;;;;;;;;1847030;75;27335;-48
2022/08/23 02:50:35;;;;;;;0.80;0.80;;;;;;;;;;1851125;75;26776;-48
2022/08/23 02:53:03;;;;;;;1.00;0.90;;;;;;;;;;1851445;75;26337;-49
2022/08/23 02:55:30;;;;;;;1.02;0.93;;;;;;;;;;1837096;75;26879;-50
2022/08/23 02:57:58;;;;;;;1.57;0.80;;;;;;;;;;1847314;75;26273;-49
2022/08/23 03:00:25;;;;;;;1.98;1.00;;;;;;;;;;1853071;75;26799;-49
2022/08/23 03:02:52;;;;;;;0.72;0.72;;;;;;;;;;1855026;75;26262;-49
2022/08/23 03:05:19;;;;;;;1.40;0.80;;;;;;;;;;1845018;75;26367;-49
2022/08/23 03:07:47;;;;;;;0.88;0.88;;;;;;;;;;1854924;75;27319;-53
2022/08/23 03:10:15;;;;;;;1.10;0.95;;;;;;;;;;1850946;75;26388;-49
2022/08/23 03:12:43;;;;;;;1.10;1.00;;;;;;;;;;1854724;75;26296;-49
2022/08/23 03:15:11;;;;;;;0.80;0.80;;;;;;;;;;1849901;75;26793;-50
2022/08/23 03:17:38;;;;;;;0.85;0.85;;;;;;;;;;1855756;75;26266;-49
2022/08/23 03:20:07;;;;;;;1.00;0.90;;;;;;;;;;1855760;75;26299;-51
2022/08/23 03:22:34;;;;;;;0.70;0.68;;;;;;;;;;1861574;76;26617;-51
2022/08/23 03:25:01;;;;;;;1.80;1.00;;;;;;;;;;1859254;75;26331;-50
2022/08/23 03:27:30;;;;;;;0.78;0.78;;;;;;;;;;1845407;75;26219;-50
2022/08/23 03:29:57;;;;;;;0.90;0.70;;;;;;;;;;1850552;75;26309;-49
2022/08/23 03:32:25;;;;;;;2.00;0.93;;;;;;;;;;1840995;75;26367;-49
2022/08/23 03:34:53;;;;;;;2.05;0.90;;;;;;;;;;1850485;76;26325;-49
2022/08/23 03:37:20;;;;;;;0.88;0.70;;;;;;;;;;1855708;75;26262;-49
2022/08/23 03:39:47;;;;;;;0.98;0.98;;;;;;;;;;1835682;75;27379;-49
2022/08/23 03:42:15;;;;;;;3.42;0.93;;;;;;;;;;1845600;75;26270;-51
2022/08/23 03:44:42;;;;;;;1.92;0.90;;;;;;;;;;1847216;76;26769;-50
2022/08/23 03:47:10;;;;;;;5.70;1.00;;;;;;;;;;1843011;76;26811;-48
2022/08/23 03:49:37;;;;;;;0.82;0.82;;;;;;;;;;1843906;76;26383;-53
2022/08/23 03:52:05;;;;;;;0.80;0.80;;;;;;;;;;1846480;76;26386;-48
2022/08/23 03:54:33;;;;;;;1.75;0.98;;;;;;;;;;1843261;76;26302;-48
2022/08/23 03:57:02;;;;;;;0.82;0.82;;;;;;;;;;1853646;76;27368;-49
2022/08/23 03:59:30;;;;;;;1.20;0.93;;;;;;;;;;1841617;77;26261;-47
2022/08/23 04:01:57;;;;;;;2.25;0.80;;;;;;;;;;1847432;77;26505;-48
2022/08/23 04:04:25;;;;;;;2.00;0.90;;;;;;;;;;1838521;76;26317;-48
2022/08/23 04:06:52;;;;;;;1.65;1.17;;;;;;;;;;1832288;76;26266;-49
2022/08/23 04:09:19;;;;;;;0.80;0.80;;;;;;;;;;1840143;76;26269;-50
2022/08/23 04:11:47;;;;;;;2.12;0.78;;;;;;;;;;1848612;76;26270;-51
2022/08/23 04:14:14;;;;;;;4.83;1.05;;;;;;;;;;1845425;76;26757;-50
2022/08/23 04:16:43;;;;;;;1.00;0.90;;;;;;;;;;1852447;76;26275;-52
2022/08/23 04:19:15;;;;;;;1.72;0.95;;;;;;;;;;1852462;76;26742;-49
2022/08/23 04:21:43;;;;;;;1.30;0.90;;;;;;;;;;1854416;76;26209;-48
2022/08/23 04:24:11;;;;;;;1.30;0.90;;;;;;;;;;1852796;76;26715;-51
2022/08/23 04:26:39;;;;;;;1.50;0.80;;;;;;;;;;1851608;76;26290;-47
2022/08/23 04:29:07;;;;;;;1.05;0.80;;;;;;;;;;1843949;76;26332;-47
2022/08/23 04:31:35;;;;;;;2.05;1.02;;;;;;;;;;1832441;76;26741;-48
2022/08/23 04:34:02;;;;;;;1.27;0.80;;;;;;;;;;1841773;76;26267;-51
2022/08/23 04:36:31;;;;;;;1.75;0.82;;;;;;;;;;1845210;76;26336;-52
2022/08/23 04:38:58;;;;;;;1.32;0.70;;;;;;;;;;1850717;76;26391;-48
2022/08/23 04:44:13;;;;;;;0.68;0.68;;;;;;;;;;1843938;76;26386;-48
2022/08/23 04:46:42;;;;;;;1.37;0.88;;;;;;;;;;1842407;77;26224;-49
2022/08/23 04:49:10;;;;;;;0.90;0.80;;;;;;;;;;1830279;76;26313;-51
2022/08/23 04:51:38;;;;;;;4.47;0.80;;;;;;;;;;1838342;76;26340;-49
2022/08/23 04:54:06;;;;;;;1.75;0.90;;;;;;;;;;1826000;77;26319;-52
2022/08/23 04:56:34;;;;;;;2.37;0.70;;;;;;;;;;1839713;76;26727;-53
2022/08/23 04:59:01;;;;;;;1.12;0.90;;;;;;;;;;1838984;76;26309;-49
2022/08/23 05:01:29;;;;;;;2.52;0.90;;;;;;;;;;1849322;76;26265;-52
2022/08/23 05:03:56;;;;;;;1.12;0.93;;;;;;;;;;1839175;76;26714;-53
2022/08/23 05:06:24;;;;;;;1.85;0.90;;;;;;;;;;1848224;77;26251;-52
2022/08/23 05:08:51;;;;;;;1.55;0.90;;;;;;;;;;1843988;77;26276;-53
2022/08/23 05:11:19;;;;;;;3.33;1.00;;;;;;;;;;1844810;76;26271;-53
2022/08/23 05:13:46;;;;;;;4.33;0.88;;;;;;;;;;1834287;76;26364;-54
2022/08/23 05:16:14;;;;;;;1.82;1.15;;;;;;;;;;1844224;76;26724;-50
2022/08/23 05:18:41;;;;;;;2.45;1.00;;;;;;;;;;1844694;76;26318;-52
2022/08/23 05:21:10;;;;;;;1.40;0.90;;;;;;;;;;1849574;76;26360;-53
2022/08/23 05:23:37;;;;;;;2.47;1.00;;;;;;;;;;1847042;76;26274;-50
2022/08/23 05:26:04;;;;;;;2.87;0.93;;;;;;;;;;1843525;76;26697;-50
2022/08/23 05:28:33;;;;;;;2.90;0.80;;;;;;;;;;1828363;77;26352;-49
2022/08/23 05:31:05;;;;;;;1.62;0.90;;;;;;;;;;1846671;77;26231;-52
2022/08/23 05:33:33;;;;;;;2.37;0.93;;;;;;;;;;1846807;76;26294;-49
2022/08/23 05:36:01;;;;;;;1.98;0.98;;;;;;;;;;1848555;77;26311;-50
2022/08/23 05:38:29;;;;;;;2.85;1.10;;;;;;;;;;1847140;77;26349;-50
2022/08/23 05:40:57;;;;;;;1.32;0.88;;;;;;;;;;1851333;77;26278;-50
2022/08/23 05:43:24;;;;;;;2.12;1.10;;;;;;;;;;1850379;77;26325;-51
2022/08/23 05:46:03;;;;;;;3.55;1.10;;;;;;;;;;1842240;77;26726;-53
2022/08/23 05:48:31;;;;;;;2.95;1.02;;;;;;;;;;1846885;77;26341;-52
2022/08/23 05:50:59;;;;;;;1.80;1.00;;;;;;;;;;1847457;77;26254;-51
2022/08/23 05:53:27;;;;;;;1.15;1.00;;;;;;;;;;1841933;77;26305;-54
2022/08/23 05:55:54;;;;;;;2.27;1.10;;;;;;;;;;1844065;77;26283;-53
2022/08/23 05:58:21;;;;;;;2.00;0.90;;;;;;;;;;1838927;77;26320;-50
2022/08/23 06:00:48;;;;;;;0.80;0.80;;;;;;;;;;1843185;77;26271;-51
2022/08/23 06:03:16;;;;;;;2.10;1.00;;;;;;;;;;1847142;76;26388;-50
2022/08/23 06:05:43;;;;;;;1.92;0.95;;;;;;;;;;1845571;76;26671;-52
2022/08/23 06:08:10;;;;;;;1.92;1.00;;;;;;;;;;1844295;76;26321;-50
2022/08/23 06:10:37;;;;;;;0.93;0.90;;;;;;;;;;1845468;76;26304;-52
2022/08/23 06:13:05;;;;;;;1.75;1.25;;;;;;;;;;1846522;76;26204;-51
2022/08/23 06:15:32;;;;;;;1.10;1.00;;;;;;;;;;1846226;76;26231;-50
2022/08/23 06:17:59;;;;;;;1.87;1.05;;;;;;;;;;1845206;76;26330;-46
2022/08/23 06:20:27;;;;;;;1.22;1.00;;;;;;;;;;1846783;76;26339;-48
2022/08/23 06:22:54;;;;;;;1.60;1.00;;;;;;;;;;1844180;76;27263;-50
2022/08/23 06:25:21;;;;;;;1.45;0.80;;;;;;;;;;1841805;76;26584;-48
2022/08/23 06:27:48;;;;;;;1.25;0.85;;;;;;;;;;1840111;76;26264;-46
2022/08/23 06:30:16;;;;;;;0.80;0.70;;;;;;;;;;1843198;76;26245;-49
2022/08/23 06:32:43;;;;;;;1.55;0.80;;;;;;;;;;1842955;76;26840;-46
2022/08/23 06:35:10;;;;;;;1.98;0.70;;;;;;;;;;1843394;76;26731;-52
2022/08/23 06:37:38;;;;;;;0.85;0.72;;;;;;;;;;1846292;76;26378;-46
2022/08/23 06:40:06;;;;;;;0.70;0.70;;;;;;;;;;1846714;76;26270;-48
2022/08/23 06:42:34;;;;;;;2.20;1.00;;;;;;;;;;1848072;76;26766;-56
2022/08/23 06:45:01;;;;;;;2.35;1.15;;;;;;;;;;1845167;76;26274;-55
2022/08/23 06:47:29;;;;;;;1.77;0.75;;;;;;;;;;1846495;76;26279;-54
2022/08/23 06:49:57;;;;;;;0.90;0.90;;;;;;;;;;1847170;76;26287;-52
2022/08/23 06:52:27;;;;;;;0.70;0.70;;;;;;;;;;1842562;76;26274;-55
2022/08/23 06:54:54;;;;;;;0.98;0.80;;;;;;;;;;1856149;76;26247;-52
2022/08/23 06:57:21;;;;;;;2.05;0.75;;;;;;;;;;1860639;76;26254;-55
2022/08/23 06:59:49;;;;;;;0.80;0.80;;;;;;;;;;1859917;76;26347;-55
2022/08/23 07:02:16;;;;;;;0.70;0.70;;;;;;;;;;1860326;75;26256;-50
2022/08/23 07:04:44;;;;;;;1.45;0.70;;;;;;;;;;1865730;75;26262;-45
2022/08/23 07:07:11;;;;;;;0.70;0.70;;;;;;;;;;1860767;76;27468;-51
2022/08/23 07:09:40;;;;;;;0.70;0.70;;;;;;;;;;1842841;76;26343;-46
2022/08/23 07:12:08;;;;;;;1.35;0.60;;;;;;;;;;1857494;77;27170;-45
2022/08/23 07:14:36;;;;;;;0.60;0.60;;;;;;;;;;1861437;76;26282;-46
2022/08/23 07:17:04;;;;;;;0.68;0.68;;;;;;;;;;1862253;75;26270;-46
2022/08/23 07:19:32;;;;;;;1.60;0.60;;;;;;;;;;1849063;76;26330;-47
2022/08/23 07:22:00;;;;;;;1.50;0.80;;;;;;;;;;1860542;77;26703;-48
2022/08/23 07:24:28;;;;;;;0.70;0.70;;;;;;;;;;1860556;76;26258;-50
2022/08/23 07:26:55;;;;;;;0.68;0.60;;;;;;;;;;1853909;76;26731;-46
2022/08/23 07:29:23;;;;;;;0.68;0.68;;;;;;;;;;1859234;75;26285;-50
2022/08/23 07:31:51;;;;;;;0.60;0.60;;;;;;;;;;1865911;75;26253;-45
2022/08/23 07:34:19;;;;;;;0.60;0.60;;;;;;;;;;1857283;75;26809;-44
2022/08/23 07:36:47;;;;;;;0.50;0.50;;;;;;;;;;1844910;75;26289;-47
2022/08/23 07:39:15;;;;;;;0.70;0.70;;;;;;;;;;1861257;76;26251;-45
2022/08/23 07:41:43;;;;;;;0.75;0.75;;;;;;;;;;1862319;76;26332;-46
2022/08/23 07:44:11;;;;;;;0.50;0.50;;;;;;;;;;1858600;76;26250;-48
2022/08/23 07:46:40;;;;;;;0.70;0.70;;;;;;;;;;1861895;76;26275;-46
2022/08/23 07:49:09;;;;;;;0.50;0.50;;;;;;;;;;1868956;75;26658;-46
2022/08/23 07:51:37;;;;;;;0.68;0.68;;;;;;;;;;1861403;75;26203;-48
2022/08/23 07:54:05;;;;;;;0.85;0.68;;;;;;;;;;1857370;76;27229;-48
2022/08/23 07:56:34;;;;;;;0.60;0.60;;;;;;;;;;1852648;76;26345;-51
2022/08/23 07:59:02;;;;;;;0.50;0.50;;;;;;;;;;1844971;77;26218;-50
2022/08/23 08:01:29;;;;;;;0.50;0.37;;;;;;;;;;1816564;77;26751;-47
2022/08/23 08:03:58;;;;;;;0.50;0.50;;;;;;;;;;1839819;77;26363;-46
2022/08/23 08:06:29;;;;;;;0.60;0.60;;;;;;;;;;1846484;76;26819;-46
2022/08/23 08:08:57;;;;;;;0.50;0.50;;;;;;;;;;1826579;77;27344;-48
2022/08/23 08:11:26;;;;;;;0.55;0.55;;;;;;;;;;1841577;77;26263;-47
2022/08/23 08:13:54;;;;;;;0.60;0.60;;;;;;;;;;1844991;76;26730;-47
2022/08/23 08:16:25;;;;;;;0.53;0.53;;;;;;;;;;1843748;76;26265;-47
2022/08/23 08:18:58;;;;;;;0.47;0.47;;;;;;;;;;1844376;77;26286;-51
2022/08/23 08:21:25;;;;;;;0.60;0.60;;;;;;;;;;1844893;77;27515;-46
2022/08/23 08:23:53;;;;;;;0.53;0.53;;;;;;;;;;1844925;77;26321;-51
2022/08/23 08:26:21;;;;;;;0.40;0.40;;;;;;;;;;1842601;76;26271;-43
2022/08/23 08:28:49;;;;;;;0.50;0.50;;;;;;;;;;1845108;77;26417;-51
2022/08/23 08:31:17;;;;;;;0.50;0.50;;;;;;;;;;1845106;77;26377;-49
2022/08/23 08:33:44;;;;;;;0.50;0.50;;;;;;;;;;1845671;77;26440;-48
2022/08/23 08:36:13;;;;;;;0.45;0.45;;;;;;;;;;1844473;76;26262;-47
2022/08/23 08:38:40;;;;;;;0.55;0.55;;;;;;;;;;1842386;76;26270;-44
2022/08/23 08:41:14;;;;;;;0.42;0.42;;;;;;;;;;1843987;77;26271;-51
2022/08/23 08:43:49;;;;;;;0.50;0.50;;;;;;;;;;1833640;77;26270;-47
2022/08/23 08:46:20;;;;;;;0.33;0.33;;;;;;;;;;1847163;76;26291;-48
2022/08/23 08:48:49;;;;;;;0.40;0.40;;;;;;;;;;1843482;76;26364;-46
2022/08/23 08:51:18;;;;;;;0.40;0.40;;;;;;;;;;1835083;76;26283;-47
2022/08/23 08:53:47;;;;;;;0.95;0.50;;;;;;;;;;1845182;76;26275;-48
2022/08/23 08:56:19;;;;;;;0.50;0.50;;;;;;;;;;1847170;76;26274;-46
2022/08/23 08:58:51;;;;;;;0.37;0.37;;;;;;;;;;1842462;76;26357;-52
2022/08/23 09:01:19;;;;;;;0.50;0.50;;;;;;;;;;1833124;77;26270;-46
2022/08/23 09:03:47;;;;;;;0.40;0.40;;;;;;;;;;1842743;76;26267;-47
2022/08/23 09:06:33;;;;;;;0.40;0.40;;;;;;;;;;1848654;76;26271;-49
2022/08/23 09:09:20;;;;;;;0.50;0.50;;;;;;;;;;1842928;76;26347;-50
2022/08/23 09:11:49;;;;;;;0.42;0.42;;;;;;;;;;1841153;76;26256;-49
2022/08/23 09:14:18;;;;;;;1.30;0.50;;;;;;;;;;1846496;76;26878;-57
2022/08/23 09:19:19;;;;;;;0.50;0.50;;;;;;;;;;1893687;73;28074;-48
2022/08/23 09:21:48;;;;;;;1.02;0.60;;;;;;;;;;1858816;76;26320;-48
2022/08/23 09:24:15;;;;;;;1.72;0.42;;;;;;;;;;1857457;75;26246;-50
2022/08/23 09:28:37;;;;;;;4.33;0.50;;;;;;;;;;1899649;74;29222;-46
2022/08/23 09:31:06;;;;;;;0.50;0.50;;;;;;;;;;1876485;76;26359;-49
2022/08/23 09:33:37;;;;;;;0.53;0.50;;;;;;;;;;1878718;76;26627;-47
2022/08/23 09:36:24;;;;;;;0.42;0.42;;;;;;;;;;1875362;76;26210;-50
2022/08/23 09:38:56;;;;;;;0.40;0.40;;;;;;;;;;1876217;76;26290;-51
2022/08/23 09:41:28;;;;;;;0.50;0.50;;;;;;;;;;1872264;76;26202;-50
2022/08/23 09:54:54;;;;;;;0.40;0.40;;;;;;;;;;1899111;71;26908;-51
2022/08/23 09:57:23;;;;;;;0.47;0.47;;;;;;;;;;1877707;75;26276;-47
2022/08/23 09:59:50;;;;;;;0.55;0.55;;;;;;;;;;1877648;76;26334;-48
2022/08/23 10:02:27;;;;;;;0.40;0.40;;;;;;;;;;1876013;75;26339;-48
2022/08/23 10:04:56;;;;;;;0.50;0.50;;;;;;;;;;1877432;76;26332;-52
2022/08/23 10:07:24;;;;;;;0.40;0.40;;;;;;;;;;1879188;75;26273;-47
2022/08/23 10:09:53;;;;;;;0.30;0.30;;;;;;;;;;1868472;76;26300;-48
2022/08/23 10:12:21;;;;;;;0.50;0.50;;;;;;;;;;1873153;76;26314;-52
2022/08/23 10:14:48;;;;;;;0.40;0.40;;;;;;;;;;1880146;76;26261;-47
2022/08/23 10:17:32;;;;;;;0.50;0.50;;;;;;;;;;1865864;76;26884;-51
2022/08/23 10:19:59;;;;;;;9.18;0.60;;;;;;;;;;1869048;76;26223;-47
2022/08/23 10:22:27;;;;;;;2.60;0.60;;;;;;;;;;1864017;76;26253;-48
2022/08/23 10:25:01;;;;;;;5.58;0.53;;;;;;;;;;1881226;76;25321;-48
2022/08/23 10:30:25;;;;;;;2.80;0.50;;;;;;;;;;1870302;76;26825;-48
2022/08/23 10:33:10;;;;;;;0.60;0.60;;;;;;;;;;1871531;75;26740;-49
2022/08/23 10:35:39;;;;;;;2.33;0.40;;;;;;;;;;1872146;76;26267;-47
2022/08/23 10:38:20;;;;;;;0.40;0.40;;;;;;;;;;1887008;75;26328;-47
2022/08/23 10:40:50;;;;;;;0.50;0.50;;;;;;;;;;1877087;76;26775;-50
2022/08/23 10:43:25;;;;;;;0.50;0.50;;;;;;;;;;1878997;76;26320;-48
2022/08/23 10:45:53;;;;;;;0.40;0.40;;;;;;;;;;1874282;76;26725;-47
2022/08/23 10:48:26;;;;;;;0.50;0.50;;;;;;;;;;1879285;76;26253;-47
2022/08/23 10:51:04;;;;;;;0.45;0.45;;;;;;;;;;1869849;76;26309;-48
2022/08/23 10:53:33;;;;;;;0.60;0.60;;;;;;;;;;1877827;76;26981;-49
2022/08/23 10:56:03;;;;;;;0.85;0.50;;;;;;;;;;1872611;76;26438;-49
2022/08/23 10:58:33;;;;;;;0.50;0.50;;;;;;;;;;1882253;76;26304;-49
2022/08/23 11:01:00;;;;;;;1.25;0.50;;;;;;;;;;1875168;76;26364;-47
2022/08/23 11:03:29;;;;;;;2.62;0.57;;;;;;;;;;1868568;76;26295;-50
2022/08/23 11:06:10;;;;;;;0.80;0.50;;;;;;;;;;1869858;76;26244;-48
2022/08/23 11:08:45;;;;;;;0.98;0.42;;;;;;;;;;1827549;76;26338;-51
2022/08/23 11:11:10;;;;;;;0.40;0.40;;;;;;;;;;1870985;76;26206;-47
2022/08/23 11:13:37;;;;;;;0.30;0.30;;;;;;;;;;1878390;76;26715;-47
2022/08/23 11:16:14;;;;;;;0.40;0.40;;;;;;;;;;1884858;76;26711;-48
2022/08/23 11:18:44;;;;;;;0.50;0.50;;;;;;;;;;1886519;76;26756;-47
2022/08/23 11:21:18;;;;;;;1.32;0.42;;;;;;;;;;1878531;76;26324;-48
2022/08/23 11:23:52;;;;;;;0.50;0.50;;;;;;;;;;1886788;76;26311;-48
2022/08/23 11:26:24;;;;;;;0.50;0.50;;;;;;;;;;1866338;76;26269;-49
2022/08/23 11:28:52;;;;;;;2.22;0.62;;;;;;;;;;1844605;77;26279;-48
2022/08/23 11:31:21;;;;;;;1.85;0.57;;;;;;;;;;1870806;76;25960;-48
2022/08/23 11:33:53;;;;;;;0.57;0.57;;;;;;;;;;1871506;76;26364;-48
2022/08/23 11:36:24;;;;;;;0.30;0.30;;;;;;;;;;1862591;76;26276;-47
2022/08/23 11:38:54;;;;;;;0.37;0.30;;;;;;;;;;1870016;76;26369;-48
2022/08/23 11:41:28;;;;;;;0.57;0.57;;;;;;;;;;1868612;76;26316;-46
2022/08/23 11:43:57;;;;;;;1.20;0.40;;;;;;;;;;1836846;77;26285;-49
2022/08/23 11:46:26;;;;;;;0.57;0.57;;;;;;;;;;1867239;76;26660;-48
2022/08/23 11:49:04;;;;;;;0.40;0.40;;;;;;;;;;1875948;76;26271;-52
2022/08/23 11:51:33;;;;;;;0.62;0.53;;;;;;;;;;1866717;76;26319;-48
2022/08/23 11:54:02;;;;;;;0.50;0.50;;;;;;;;;;1860810;76;26920;-50
2022/08/23 11:56:43;;;;;;;0.53;0.40;;;;;;;;;;1840445;76;26726;-50
2022/08/23 11:59:21;;;;;;;1.47;0.50;;;;;;;;;;1835999;76;26743;-50
2022/08/23 12:01:48;;;;;;;0.40;0.40;;;;;;;;;;1824814;77;26731;-51
2022/08/23 12:04:20;;;;;;;1.32;0.60;;;;;;;;;;1844275;76;26331;-48
2022/08/23 12:06:49;;;;;;;0.40;0.40;;;;;;;;;;1847708;77;26300;-48
2022/08/23 12:09:21;;;;;;;0.50;0.50;;;;;;;;;;1846850;76;27529;-47
2022/08/23 12:11:55;;;;;;;0.50;0.50;;;;;;;;;;1845985;76;26275;-51
2022/08/23 12:14:35;;;;;;;1.05;0.50;;;;;;;;;;1823819;77;27264;-50
2022/08/23 12:17:06;;;;;;;0.30;0.30;;;;;;;;;;1839180;77;27462;-49
2022/08/23 12:19:35;;;;;;;0.40;0.40;;;;;;;;;;1830088;77;26217;-49
2022/08/23 12:22:10;;;;;;;0.60;0.60;;;;;;;;;;1847772;77;26318;-49
2022/08/23 12:24:42;;;;;;;0.45;0.45;;;;;;;;;;1827691;76;26269;-47
2022/08/23 12:27:14;;;;;;;0.50;0.50;;;;;;;;;;1846886;76;27262;-50
2022/08/23 12:29:58;;;;;;;0.50;0.50;;;;;;;;;;1849551;76;26329;-48
2022/08/23 12:32:29;;;;;;;1.17;0.47;;;;;;;;;;1852308;76;26271;-48
2022/08/23 12:34:58;;;;;;;0.50;0.50;;;;;;;;;;1865383;76;26224;-47
2022/08/23 12:37:44;;;;;;;0.40;0.40;;;;;;;;;;1847503;77;26267;-49
2022/08/23 12:40:13;;;;;;;0.50;0.50;;;;;;;;;;1844288;76;27266;-48
2022/08/23 12:42:41;;;;;;;0.40;0.40;;;;;;;;;;1847337;76;26255;-49
2022/08/23 12:45:15;;;;;;;0.50;0.50;;;;;;;;;;1852685;76;26299;-48
2022/08/23 12:47:44;;;;;;;0.40;0.40;;;;;;;;;;1855430;76;26287;-48
2022/08/23 12:50:13;;;;;;;0.47;0.42;;;;;;;;;;1843278;76;26275;-48
2022/08/23 12:52:40;;;;;;;0.57;0.57;;;;;;;;;;1848331;77;26357;-47
2022/08/23 12:55:15;;;;;;;0.50;0.50;;;;;;;;;;1843902;76;26859;-49
2022/08/23 12:57:44;;;;;;;0.30;0.30;;;;;;;;;;1866338;76;26265;-49
2022/08/23 13:00:16;;;;;;;0.35;0.35;;;;;;;;;;1878513;76;26238;-50
2022/08/23 13:02:57;;;;;;;0.40;0.40;;;;;;;;;;1865551;76;26302;-48
2022/08/23 13:05:31;;;;;;;0.37;0.37;;;;;;;;;;1876244;76;26339;-52
2022/08/23 13:08:00;;;;;;;0.40;0.40;;;;;;;;;;1876506;76;26276;-48
2022/08/23 13:10:28;;;;;;;0.40;0.40;;;;;;;;;;1854120;76;26765;-49
2022/08/23 13:12:55;;;;;;;0.40;0.40;;;;;;;;;;1853438;75;26323;-50
2022/08/23 13:15:39;;;;;;;0.40;0.40;;;;;;;;;;1864797;76;26244;-48
2022/08/23 13:18:06;;;;;;;0.40;0.40;;;;;;;;;;1861435;76;26257;-49
2022/08/23 13:20:34;;;;;;;0.50;0.50;;;;;;;;;;1870586;76;26729;-48
2022/08/23 13:23:06;;;;;;;0.20;0.20;;;;;;;;;;1860739;76;26795;-50
2022/08/23 13:25:35;;;;;;;0.30;0.30;;;;;;;;;;1876809;76;26346;-48
2022/08/23 13:28:03;;;;;;;0.50;0.50;;;;;;;;;;1874650;76;26257;-50
2022/08/23 13:30:32;;;;;;;0.37;0.37;;;;;;;;;;1858923;76;26740;-48
2022/08/23 13:33:07;;;;;;;0.40;0.40;;;;;;;;;;1878274;76;26351;-51
2022/08/23 13:35:35;;;;;;;0.50;0.50;;;;;;;;;;1871781;75;26199;-49
2022/08/23 13:38:20;;;;;;;0.47;0.47;;;;;;;;;;1873274;76;26238;-51
2022/08/23 13:40:48;;;;;;;0.40;0.40;;;;;;;;;;1874577;76;26724;-51
2022/08/23 13:43:17;;;;;;;0.30;0.30;;;;;;;;;;1874918;75;26777;-48
2022/08/23 13:45:46;;;;;;;0.30;0.30;;;;;;;;;;1873613;76;26950;-49
2022/08/23 13:48:15;;;;;;;0.40;0.40;;;;;;;;;;1876221;76;26870;-49
2022/08/23 13:50:42;;;;;;;0.50;0.50;;;;;;;;;;1872685;76;26759;-49
2022/08/23 13:53:09;;;;;;;0.35;0.35;;;;;;;;;;1868601;76;26712;-49
2022/08/23 13:55:44;;;;;;;0.30;0.30;;;;;;;;;;1856371;76;26728;-50
2022/08/23 13:58:13;;;;;;;1.05;0.40;;;;;;;;;;1871223;76;26288;-50
2022/08/23 14:00:41;;;;;;;0.45;0.45;;;;;;;;;;1857575;76;26260;-49
2022/08/23 14:03:08;;;;;;;0.30;0.30;;;;;;;;;;1863950;76;26320;-48
2022/08/23 14:05:35;;;;;;;0.40;0.40;;;;;;;;;;1869118;76;26713;-48
2022/08/23 14:08:03;;;;;;;0.40;0.40;;;;;;;;;;1869755;76;26751;-48
2022/08/23 14:10:30;;;;;;;0.37;0.37;;;;;;;;;;1870291;75;26367;-50
2022/08/23 14:13:00;;;;;;;0.30;0.30;;;;;;;;;;1861659;76;26264;-50
2022/08/23 14:15:26;;;;;;;0.30;0.30;;;;;;;;;;1865204;75;26387;-47
2022/08/23 14:17:54;;;;;;;0.30;0.30;;;;;;;;;;1873759;76;26246;-48
2022/08/23 14:20:24;;;;;;;0.35;0.35;;;;;;;;;;1875278;76;26261;-48
2022/08/23 14:22:52;;;;;;;0.40;0.40;;;;;;;;;;1875680;76;26243;-52
2022/08/23 14:25:19;;;;;;;0.40;0.40;;;;;;;;;;1866121;75;26715;-50
2022/08/23 14:27:47;;;;;;;0.50;0.50;;;;;;;;;;1869405;76;26631;-47
2022/08/23 14:30:16;;;;;;;0.40;0.40;;;;;;;;;;1858482;76;26342;-49
2022/08/23 14:32:43;;;;;;;0.40;0.40;;;;;;;;;;1854547;76;26324;-47
2022/08/23 14:35:11;;;;;;;0.50;0.50;;;;;;;;;;1875278;76;26241;-48
2022/08/23 14:37:38;;;;;;;0.30;0.30;;;;;;;;;;1870973;76;26277;-50
2022/08/23 14:40:07;;;;;;;0.45;0.40;;;;;;;;;;1867978;75;26264;-50
2022/08/23 14:42:35;;;;;;;0.45;0.45;;;;;;;;;;1869832;76;26829;-48
2022/08/23 14:45:02;;;;;;;0.40;0.40;;;;;;;;;;1853358;76;26311;-51
2022/08/23 14:47:30;;;;;;;0.40;0.40;;;;;;;;;;1864804;76;26811;-50
2022/08/23 14:49:57;;;;;;;0.40;0.40;;;;;;;;;;1869589;75;26327;-49
2022/08/23 14:52:24;;;;;;;0.40;0.40;;;;;;;;;;1859390;76;26348;-48
2022/08/23 14:54:51;;;;;;;0.40;0.40;;;;;;;;;;1857895;76;26272;-49
2022/08/23 14:57:19;;;;;;;0.50;0.50;;;;;;;;;;1876438;76;26842;-49
2022/08/23 14:59:46;;;;;;;0.60;0.60;;;;;;;;;;1872052;76;26249;-50
2022/08/23 15:02:15;;;;;;;0.45;0.45;;;;;;;;;;1869977;76;26256;-48
2022/08/23 15:04:42;;;;;;;0.50;0.50;;;;;;;;;;1871985;76;26246;-51
2022/08/23 15:07:09;;;;;;;0.50;0.50;;;;;;;;;;1863672;76;26376;-48
2022/08/23 15:09:37;;;;;;;0.50;0.50;;;;;;;;;;1868710;76;26257;-47
2022/08/23 15:12:04;;;;;;;0.42;0.42;;;;;;;;;;1873473;76;26249;-49
2022/08/23 15:14:31;;;;;;;0.55;0.55;;;;;;;;;;1863546;76;26833;-51
2022/08/23 15:16:59;;;;;;;0.62;0.62;;;;;;;;;;1873718;76;26810;-51
2022/08/23 15:19:27;;;;;;;0.40;0.40;;;;;;;;;;1873141;76;26297;-49
2022/08/23 15:21:54;;;;;;;0.40;0.40;;;;;;;;;;1856935;76;26838;-48
2022/08/23 15:24:21;;;;;;;0.50;0.50;;;;;;;;;;1876642;76;26312;-49